sensor_id;sensor_type;location;lat;lon;timestamp;temperature;humidity
52495;DHT22;38405;53.212;5.660;2023-01-04T00:01:05;8.20;99.90
52495;DHT22;38405;53.212;5.660;2023-01-04T00:03:31;8.30;99.90
52495;DHT22;38405;53.212;5.660;2023-01-04T00:05:57;8.40;99.90
52495;DHT22;38405;53.212;5.660;2023-01-04T00:08:24;8.30;99.90
52495;DHT22;38405;53.212;5.660;2023-01-04T00:10:49;8.30;99.90
52495;DHT22;38405;53.212;5.660;2023-01-04T00:13:15;8.30;99.90
52495;DHT22;38405;53.212;5.660;2023-01-04T00:15:41;8.40;99.90
52495;DHT22;38405;53.212;5.660;2023-01-04T00:18:06;8.30;99.90
52495;DHT22;38405;53.212;5.660;2023-01-04T00:20:32;8.30;99.90
52495;DHT22;38405;53.212;5.660;2023-01-04T00:22:57;8.30;99.90
52495;DHT22;38405;53.212;5.660;2023-01-04T00:25:23;8.30;99.90
52495;DHT22;38405;53.212;5.660;2023-01-04T00:27:50;8.30;99.90
52495;DHT22;38405;53.212;5.660;2023-01-04T00:30:15;8.30;99.90
52495;DHT22;38405;53.212;5.660;2023-01-04T00:32:42;8.40;99.90
52495;DHT22;38405;53.212;5.660;2023-01-04T00:35:11;8.30;99.90
52495;DHT22;38405;53.212;5.660;2023-01-04T00:37:36;8.50;99.90
52495;DHT22;38405;53.212;5.660;2023-01-04T00:40:02;8.40;99.90
52495;DHT22;38405;53.212;5.660;2023-01-04T00:42:28;8.40;99.90
52495;DHT22;38405;53.212;5.660;2023-01-04T00:44:53;8.30;99.90
52495;DHT22;38405;53.212;5.660;2023-01-04T00:47:19;8.40;99.90
52495;DHT22;38405;53.212;5.660;2023-01-04T00:49:45;8.40;99.90
52495;DHT22;38405;53.212;5.660;2023-01-04T00:52:10;8.40;99.90
52495;DHT22;38405;53.212;5.660;2023-01-04T00:54:36;8.50;99.90
52495;DHT22;38405;53.212;5.660;2023-01-04T00:57:02;8.50;99.90
52495;DHT22;38405;53.212;5.660;2023-01-04T00:59:29;8.40;99.90
52495;DHT22;38405;53.212;5.660;2023-01-04T01:01:55;8.40;99.90
52495;DHT22;38405;53.212;5.660;2023-01-04T01:04:22;8.40;99.90
52495;DHT22;38405;53.212;5.660;2023-01-04T01:06:49;8.50;99.90
52495;DHT22;38405;53.212;5.660;2023-01-04T01:09:15;8.50;99.90
52495;DHT22;38405;53.212;5.660;2023-01-04T01:11:41;8.40;99.90
52495;DHT22;38405;53.212;5.660;2023-01-04T01:14:18;8.40;99.90
52495;DHT22;38405;53.212;5.660;2023-01-04T01:16:44;8.40;99.90
52495;DHT22;38405;53.212;5.660;2023-01-04T01:19:10;8.40;99.90
52495;DHT22;38405;53.212;5.660;2023-01-04T01:21:42;8.40;99.90
52495;DHT22;38405;53.212;5.660;2023-01-04T01:24:14;8.50;99.90
52495;DHT22;38405;53.212;5.660;2023-01-04T01:26:40;8.40;99.90
52495;DHT22;38405;53.212;5.660;2023-01-04T01:29:06;8.40;99.90
52495;DHT22;38405;53.212;5.660;2023-01-04T01:31:31;8.40;99.90
52495;DHT22;38405;53.212;5.660;2023-01-04T01:33:57;8.40;99.90
52495;DHT22;38405;53.212;5.660;2023-01-04T01:36:24;8.50;99.90
52495;DHT22;38405;53.212;5.660;2023-01-04T01:38:51;8.40;99.90
52495;DHT22;38405;53.212;5.660;2023-01-04T01:41:25;8.40;99.90
52495;DHT22;38405;53.212;5.660;2023-01-04T01:43:58;8.40;99.90
52495;DHT22;38405;53.212;5.660;2023-01-04T01:46:34;8.40;99.90
52495;DHT22;38405;53.212;5.660;2023-01-04T01:49:27;8.40;99.90
52495;DHT22;38405;53.212;5.660;2023-01-04T01:51:54;8.60;99.90
52495;DHT22;38405;53.212;5.660;2023-01-04T01:54:24;8.80;99.90
52495;DHT22;38405;53.212;5.660;2023-01-04T01:56:55;8.50;99.90
52495;DHT22;38405;53.212;5.660;2023-01-04T01:59:25;8.50;99.90
52495;DHT22;38405;53.212;5.660;2023-01-04T02:01:51;8.50;99.90
52495;DHT22;38405;53.212;5.660;2023-01-04T02:04:17;8.50;99.90
52495;DHT22;38405;53.212;5.660;2023-01-04T02:06:47;8.50;99.90
52495;DHT22;38405;53.212;5.660;2023-01-04T02:09:15;8.50;99.90
52495;DHT22;38405;53.212;5.660;2023-01-04T02:11:41;8.50;99.90
52495;DHT22;38405;53.212;5.660;2023-01-04T02:14:08;8.60;99.90
52495;DHT22;38405;53.212;5.660;2023-01-04T02:17:25;8.70;99.90
52495;DHT22;38405;53.212;5.660;2023-01-04T02:20:12;8.50;99.90
52495;DHT22;38405;53.212;5.660;2023-01-04T02:33:50;8.60;99.90
52495;DHT22;38405;53.212;5.660;2023-01-04T02:39:47;8.60;99.90
52495;DHT22;38405;53.212;5.660;2023-01-04T02:44:31;8.70;99.90
52495;DHT22;38405;53.212;5.660;2023-01-04T02:59:03;8.80;99.90
52495;DHT22;38405;53.212;5.660;2023-01-04T03:07:22;8.80;99.90
52495;DHT22;38405;53.212;5.660;2023-01-04T03:09:53;8.90;99.90
52495;DHT22;38405;53.212;5.660;2023-01-04T03:12:26;9.00;99.90
52495;DHT22;38405;53.212;5.660;2023-01-04T03:17:29;9.20;99.90
52495;DHT22;38405;53.212;5.660;2023-01-04T03:19:57;9.30;99.90
52495;DHT22;38405;53.212;5.660;2023-01-04T03:22:34;9.50;99.90
52495;DHT22;38405;53.212;5.660;2023-01-04T03:25:26;9.50;99.90
52495;DHT22;38405;53.212;5.660;2023-01-04T03:28:14;9.60;99.90
52495;DHT22;38405;53.212;5.660;2023-01-04T03:34:01;9.80;99.90
52495;DHT22;38405;53.212;5.660;2023-01-04T03:36:53;9.80;99.90
52495;DHT22;38405;53.212;5.660;2023-01-04T03:45:28;10.00;99.90
52495;DHT22;38405;53.212;5.660;2023-01-04T03:48:21;10.00;99.90
52495;DHT22;38405;53.212;5.660;2023-01-04T03:51:05;10.00;99.90
52495;DHT22;38405;53.212;5.660;2023-01-04T03:53:45;10.00;99.90
52495;DHT22;38405;53.212;5.660;2023-01-04T03:56:13;10.00;99.90
52495;DHT22;38405;53.212;5.660;2023-01-04T03:58:40;10.10;99.90
52495;DHT22;38405;53.212;5.660;2023-01-04T04:01:06;10.10;99.90
52495;DHT22;38405;53.212;5.660;2023-01-04T04:03:31;10.20;99.90
52495;DHT22;38405;53.212;5.660;2023-01-04T04:06:16;10.30;99.90
52495;DHT22;38405;53.212;5.660;2023-01-04T04:09:01;10.30;99.90
52495;DHT22;38405;53.212;5.660;2023-01-04T04:11:26;10.30;99.90
52495;DHT22;38405;53.212;5.660;2023-01-04T04:13:55;10.30;99.90
52495;DHT22;38405;53.212;5.660;2023-01-04T04:16:25;10.40;99.90
52495;DHT22;38405;53.212;5.660;2023-01-04T04:18:51;10.40;99.90
52495;DHT22;38405;53.212;5.660;2023-01-04T04:21:16;10.40;99.90
52495;DHT22;38405;53.212;5.660;2023-01-04T04:23:42;10.40;99.90
52495;DHT22;38405;53.212;5.660;2023-01-04T04:26:09;10.40;99.90
52495;DHT22;38405;53.212;5.660;2023-01-04T04:28:34;10.40;99.90
52495;DHT22;38405;53.212;5.660;2023-01-04T04:31:00;10.40;99.90
52495;DHT22;38405;53.212;5.660;2023-01-04T04:33:26;10.40;99.90
52495;DHT22;38405;53.212;5.660;2023-01-04T04:35:53;10.40;99.90
52495;DHT22;38405;53.212;5.660;2023-01-04T04:38:19;10.40;99.90
52495;DHT22;38405;53.212;5.660;2023-01-04T04:40:46;10.40;99.90
52495;DHT22;38405;53.212;5.660;2023-01-04T04:43:32;10.30;99.90
52495;DHT22;38405;53.212;5.660;2023-01-04T04:45:57;10.30;99.90
52495;DHT22;38405;53.212;5.660;2023-01-04T04:48:23;10.40;99.90
52495;DHT22;38405;53.212;5.660;2023-01-04T04:50:49;10.40;99.90
52495;DHT22;38405;53.212;5.660;2023-01-04T04:53:15;10.40;99.90
52495;DHT22;38405;53.212;5.660;2023-01-04T04:55:40;10.40;99.90
52495;DHT22;38405;53.212;5.660;2023-01-04T04:58:06;10.40;99.90
52495;DHT22;38405;53.212;5.660;2023-01-04T05:00:32;10.40;99.90
52495;DHT22;38405;53.212;5.660;2023-01-04T05:02:58;10.40;99.90
52495;DHT22;38405;53.212;5.660;2023-01-04T05:05:24;10.40;99.90
52495;DHT22;38405;53.212;5.660;2023-01-04T05:07:50;10.40;99.90
52495;DHT22;38405;53.212;5.660;2023-01-04T05:10:15;10.40;99.90
52495;DHT22;38405;53.212;5.660;2023-01-04T05:12:41;10.40;99.90
52495;DHT22;38405;53.212;5.660;2023-01-04T05:15:33;10.40;99.90
52495;DHT22;38405;53.212;5.660;2023-01-04T05:17:59;10.40;99.90
52495;DHT22;38405;53.212;5.660;2023-01-04T05:20:25;10.40;99.90
52495;DHT22;38405;53.212;5.660;2023-01-04T05:22:51;10.40;99.90
52495;DHT22;38405;53.212;5.660;2023-01-04T05:25:17;10.40;99.90
52495;DHT22;38405;53.212;5.660;2023-01-04T05:27:42;10.40;99.90
52495;DHT22;38405;53.212;5.660;2023-01-04T05:30:10;10.40;99.90
52495;DHT22;38405;53.212;5.660;2023-01-04T05:32:55;10.40;99.90
52495;DHT22;38405;53.212;5.660;2023-01-04T05:35:21;10.40;99.90
52495;DHT22;38405;53.212;5.660;2023-01-04T05:37:47;10.40;99.90
52495;DHT22;38405;53.212;5.660;2023-01-04T05:40:12;10.40;99.90
52495;DHT22;38405;53.212;5.660;2023-01-04T05:42:38;10.30;99.90
52495;DHT22;38405;53.212;5.660;2023-01-04T05:45:04;10.40;99.90
52495;DHT22;38405;53.212;5.660;2023-01-04T05:47:30;10.40;99.90
52495;DHT22;38405;53.212;5.660;2023-01-04T05:49:56;10.40;99.90
52495;DHT22;38405;53.212;5.660;2023-01-04T05:52:22;10.40;99.90
52495;DHT22;38405;53.212;5.660;2023-01-04T05:54:47;10.40;99.90
52495;DHT22;38405;53.212;5.660;2023-01-04T05:57:13;10.50;99.90
52495;DHT22;38405;53.212;5.660;2023-01-04T05:59:39;10.50;99.90
52495;DHT22;38405;53.212;5.660;2023-01-04T06:02:06;10.50;99.90
52495;DHT22;38405;53.212;5.660;2023-01-04T06:04:31;10.50;99.90
52495;DHT22;38405;53.212;5.660;2023-01-04T06:06:57;10.60;99.90
52495;DHT22;38405;53.212;5.660;2023-01-04T06:09:23;10.60;99.90
52495;DHT22;38405;53.212;5.660;2023-01-04T06:11:52;10.60;99.90
52495;DHT22;38405;53.212;5.660;2023-01-04T06:14:17;10.50;99.90
52495;DHT22;38405;53.212;5.660;2023-01-04T06:16:43;10.60;99.90
52495;DHT22;38405;53.212;5.660;2023-01-04T06:19:09;10.60;99.90
52495;DHT22;38405;53.212;5.660;2023-01-04T06:21:34;10.60;99.90
52495;DHT22;38405;53.212;5.660;2023-01-04T06:24:00;10.60;99.90
52495;DHT22;38405;53.212;5.660;2023-01-04T06:26:25;10.60;99.90
52495;DHT22;38405;53.212;5.660;2023-01-04T06:28:51;10.60;99.90
52495;DHT22;38405;53.212;5.660;2023-01-04T06:31:17;10.60;99.90
52495;DHT22;38405;53.212;5.660;2023-01-04T06:33:42;10.70;99.90
52495;DHT22;38405;53.212;5.660;2023-01-04T06:36:08;10.70;99.90
52495;DHT22;38405;53.212;5.660;2023-01-04T06:38:33;10.70;99.90
52495;DHT22;38405;53.212;5.660;2023-01-04T06:40:59;10.70;99.90
52495;DHT22;38405;53.212;5.660;2023-01-04T06:43:25;10.70;99.90
52495;DHT22;38405;53.212;5.660;2023-01-04T06:45:51;10.70;99.90
52495;DHT22;38405;53.212;5.660;2023-01-04T06:48:16;10.70;99.90
52495;DHT22;38405;53.212;5.660;2023-01-04T06:50:42;10.70;99.90
52495;DHT22;38405;53.212;5.660;2023-01-04T06:53:08;10.80;99.90
52495;DHT22;38405;53.212;5.660;2023-01-04T06:55:34;10.80;99.90
52495;DHT22;38405;53.212;5.660;2023-01-04T06:58:00;10.80;99.90
52495;DHT22;38405;53.212;5.660;2023-01-04T07:00:25;10.80;99.90
52495;DHT22;38405;53.212;5.660;2023-01-04T07:02:51;10.80;99.90
52495;DHT22;38405;53.212;5.660;2023-01-04T07:05:17;10.80;99.90
52495;DHT22;38405;53.212;5.660;2023-01-04T07:07:43;10.80;99.90
52495;DHT22;38405;53.212;5.660;2023-01-04T07:10:08;10.80;99.90
52495;DHT22;38405;53.212;5.660;2023-01-04T07:12:35;10.80;99.90
52495;DHT22;38405;53.212;5.660;2023-01-04T07:15:00;10.80;99.90
52495;DHT22;38405;53.212;5.660;2023-01-04T07:17:26;10.70;99.90
52495;DHT22;38405;53.212;5.660;2023-01-04T07:19:52;10.70;99.90
52495;DHT22;38405;53.212;5.660;2023-01-04T07:22:18;10.70;99.90
52495;DHT22;38405;53.212;5.660;2023-01-04T07:24:43;10.70;99.90
52495;DHT22;38405;53.212;5.660;2023-01-04T07:27:12;10.60;99.90
52495;DHT22;38405;53.212;5.660;2023-01-04T07:29:37;10.70;99.90
52495;DHT22;38405;53.212;5.660;2023-01-04T07:32:04;10.70;99.90
52495;DHT22;38405;53.212;5.660;2023-01-04T07:34:29;10.70;99.90
52495;DHT22;38405;53.212;5.660;2023-01-04T07:36:55;10.70;99.90
52495;DHT22;38405;53.212;5.660;2023-01-04T07:39:21;10.70;99.90
52495;DHT22;38405;53.212;5.660;2023-01-04T07:41:48;10.80;99.90
52495;DHT22;38405;53.212;5.660;2023-01-04T07:44:14;10.70;99.90
52495;DHT22;38405;53.212;5.660;2023-01-04T07:46:42;10.80;99.90
52495;DHT22;38405;53.212;5.660;2023-01-04T07:49:12;10.70;99.90
52495;DHT22;38405;53.212;5.660;2023-01-04T07:51:38;10.80;99.90
52495;DHT22;38405;53.212;5.660;2023-01-04T07:54:04;10.80;99.90
52495;DHT22;38405;53.212;5.660;2023-01-04T07:56:30;10.80;99.90
52495;DHT22;38405;53.212;5.660;2023-01-04T07:58:55;10.80;99.90
52495;DHT22;38405;53.212;5.660;2023-01-04T08:01:24;10.80;99.90
52495;DHT22;38405;53.212;5.660;2023-01-04T08:03:50;10.80;99.90
52495;DHT22;38405;53.212;5.660;2023-01-04T08:06:17;10.80;99.90
52495;DHT22;38405;53.212;5.660;2023-01-04T08:08:43;10.80;99.90
52495;DHT22;38405;53.212;5.660;2023-01-04T08:11:14;10.80;99.90
52495;DHT22;38405;53.212;5.660;2023-01-04T08:13:40;10.90;99.90
52495;DHT22;38405;53.212;5.660;2023-01-04T08:16:07;10.90;99.90
52495;DHT22;38405;53.212;5.660;2023-01-04T08:18:33;11.00;99.90
52495;DHT22;38405;53.212;5.660;2023-01-04T08:21:02;11.00;99.90
52495;DHT22;38405;53.212;5.660;2023-01-04T08:23:28;11.00;99.90
52495;DHT22;38405;53.212;5.660;2023-01-04T08:25:54;11.00;99.90
52495;DHT22;38405;53.212;5.660;2023-01-04T08:28:20;11.00;99.90
52495;DHT22;38405;53.212;5.660;2023-01-04T08:30:45;11.10;99.90
52495;DHT22;38405;53.212;5.660;2023-01-04T08:33:15;11.00;99.90
52495;DHT22;38405;53.212;5.660;2023-01-04T08:35:41;11.00;99.90
52495;DHT22;38405;53.212;5.660;2023-01-04T08:38:06;11.00;99.90
52495;DHT22;38405;53.212;5.660;2023-01-04T08:40:32;11.10;99.90
52495;DHT22;38405;53.212;5.660;2023-01-04T08:42:58;11.00;99.90
52495;DHT22;38405;53.212;5.660;2023-01-04T08:45:23;11.00;99.90
52495;DHT22;38405;53.212;5.660;2023-01-04T08:47:49;11.10;99.90
52495;DHT22;38405;53.212;5.660;2023-01-04T08:50:15;11.10;99.90
52495;DHT22;38405;53.212;5.660;2023-01-04T08:52:43;11.10;99.90
52495;DHT22;38405;53.212;5.660;2023-01-04T08:55:09;11.10;99.90
52495;DHT22;38405;53.212;5.660;2023-01-04T08:57:34;11.10;99.90
52495;DHT22;38405;53.212;5.660;2023-01-04T09:00:00;11.20;99.90
52495;DHT22;38405;53.212;5.660;2023-01-04T09:02:27;11.10;99.90
52495;DHT22;38405;53.212;5.660;2023-01-04T09:04:52;11.20;99.90
52495;DHT22;38405;53.212;5.660;2023-01-04T09:07:24;11.20;99.90
52495;DHT22;38405;53.212;5.660;2023-01-04T09:09:50;11.20;99.90
52495;DHT22;38405;53.212;5.660;2023-01-04T09:12:15;11.20;99.90
52495;DHT22;38405;53.212;5.660;2023-01-04T09:14:41;11.20;99.90
52495;DHT22;38405;53.212;5.660;2023-01-04T09:17:07;11.20;99.90
52495;DHT22;38405;53.212;5.660;2023-01-04T09:19:32;11.30;99.90
52495;DHT22;38405;53.212;5.660;2023-01-04T09:21:58;11.30;99.90
52495;DHT22;38405;53.212;5.660;2023-01-04T09:24:24;11.20;99.90
52495;DHT22;38405;53.212;5.660;2023-01-04T09:26:50;11.30;99.90
52495;DHT22;38405;53.212;5.660;2023-01-04T09:29:16;11.30;99.90
52495;DHT22;38405;53.212;5.660;2023-01-04T09:31:41;11.30;99.90
52495;DHT22;38405;53.212;5.660;2023-01-04T09:34:08;11.30;99.90
52495;DHT22;38405;53.212;5.660;2023-01-04T09:36:33;11.30;99.90
52495;DHT22;38405;53.212;5.660;2023-01-04T09:38:59;11.40;99.90
52495;DHT22;38405;53.212;5.660;2023-01-04T09:43:53;11.40;99.90
52495;DHT22;38405;53.212;5.660;2023-01-04T09:46:38;11.40;99.90
52495;DHT22;38405;53.212;5.660;2023-01-04T09:49:25;11.50;99.90
52495;DHT22;38405;53.212;5.660;2023-01-04T09:52:02;11.50;99.90
52495;DHT22;38405;53.212;5.660;2023-01-04T09:54:45;11.50;99.90
52495;DHT22;38405;53.212;5.660;2023-01-04T09:57:24;11.50;99.90
52495;DHT22;38405;53.212;5.660;2023-01-04T10:00:04;11.50;99.90
52495;DHT22;38405;53.212;5.660;2023-01-04T10:02:39;11.60;99.90
52495;DHT22;38405;53.212;5.660;2023-01-04T10:05:06;11.60;99.90
52495;DHT22;38405;53.212;5.660;2023-01-04T10:07:33;11.60;99.90
52495;DHT22;38405;53.212;5.660;2023-01-04T10:09:59;11.70;99.90
52495;DHT22;38405;53.212;5.660;2023-01-04T10:15:26;11.70;99.90
52495;DHT22;38405;53.212;5.660;2023-01-04T10:31:15;11.80;99.90
52495;DHT22;38405;53.212;5.660;2023-01-04T10:33:49;11.90;99.90
52495;DHT22;38405;53.212;5.660;2023-01-04T10:36:23;11.80;99.90
52495;DHT22;38405;53.212;5.660;2023-01-04T10:41:26;11.80;99.90
52495;DHT22;38405;53.212;5.660;2023-01-04T10:43:59;11.80;99.90
52495;DHT22;38405;53.212;5.660;2023-01-04T10:46:40;11.90;99.90
52495;DHT22;38405;53.212;5.660;2023-01-04T10:49:11;11.90;99.90
52495;DHT22;38405;53.212;5.660;2023-01-04T10:54:18;11.90;99.90
52495;DHT22;38405;53.212;5.660;2023-01-04T10:57:06;12.00;99.90
52495;DHT22;38405;53.212;5.660;2023-01-04T10:59:54;12.00;99.90
52495;DHT22;38405;53.212;5.660;2023-01-04T11:02:39;12.00;99.90
52495;DHT22;38405;53.212;5.660;2023-01-04T11:07:47;12.00;99.90
52495;DHT22;38405;53.212;5.660;2023-01-04T11:10:20;12.20;99.90
52495;DHT22;38405;53.212;5.660;2023-01-04T11:12:48;12.00;99.90
52495;DHT22;38405;53.212;5.660;2023-01-04T11:15:13;12.00;99.90
52495;DHT22;38405;53.212;5.660;2023-01-04T11:17:40;11.90;99.90
52495;DHT22;38405;53.212;5.660;2023-01-04T11:20:07;11.90;99.90
52495;DHT22;38405;53.212;5.660;2023-01-04T11:25:16;11.90;99.90
52495;DHT22;38405;53.212;5.660;2023-01-04T11:28:00;12.00;99.90
52495;DHT22;38405;53.212;5.660;2023-01-04T11:30:55;12.00;99.90
52495;DHT22;38405;53.212;5.660;2023-01-04T11:33:23;12.00;99.90
52495;DHT22;38405;53.212;5.660;2023-01-04T11:35:54;12.00;99.90
52495;DHT22;38405;53.212;5.660;2023-01-04T11:38:25;12.00;99.90
52495;DHT22;38405;53.212;5.660;2023-01-04T11:41:02;12.00;99.90
52495;DHT22;38405;53.212;5.660;2023-01-04T11:43:37;11.90;99.90
52495;DHT22;38405;53.212;5.660;2023-01-04T11:48:40;11.90;99.90
52495;DHT22;38405;53.212;5.660;2023-01-04T11:51:19;11.90;99.90
52495;DHT22;38405;53.212;5.660;2023-01-04T11:54:25;11.90;99.90
52495;DHT22;38405;53.212;5.660;2023-01-04T11:57:00;11.90;99.90
52495;DHT22;38405;53.212;5.660;2023-01-04T11:59:27;11.90;99.90
52495;DHT22;38405;53.212;5.660;2023-01-04T12:04:40;11.80;99.90
52495;DHT22;38405;53.212;5.660;2023-01-04T12:07:18;11.80;99.90
52495;DHT22;38405;53.212;5.660;2023-01-04T12:09:46;11.80;99.90
52495;DHT22;38405;53.212;5.660;2023-01-04T12:12:12;11.70;99.90
52495;DHT22;38405;53.212;5.660;2023-01-04T12:14:41;11.70;99.90
52495;DHT22;38405;53.212;5.660;2023-01-04T12:19:42;11.70;99.90
52495;DHT22;38405;53.212;5.660;2023-01-04T12:24:50;11.70;99.90
52495;DHT22;38405;53.212;5.660;2023-01-04T12:27:17;11.70;99.90
52495;DHT22;38405;53.212;5.660;2023-01-04T12:34:45;11.70;99.90
52495;DHT22;38405;53.212;5.660;2023-01-04T12:45:42;11.70;99.90
52495;DHT22;38405;53.212;5.660;2023-01-04T12:51:18;11.60;99.90
52495;DHT22;38405;53.212;5.660;2023-01-04T12:56:18;11.60;99.90
52495;DHT22;38405;53.212;5.660;2023-01-04T12:59:08;11.60;99.90
52495;DHT22;38405;53.212;5.660;2023-01-04T13:01:34;11.60;99.90
52495;DHT22;38405;53.212;5.660;2023-01-04T13:04:24;11.50;99.90
52495;DHT22;38405;53.212;5.660;2023-01-04T13:06:47;11.60;99.90
52495;DHT22;38405;53.212;5.660;2023-01-04T13:09:17;11.60;99.90
52495;DHT22;38405;53.212;5.660;2023-01-04T13:12:03;11.50;99.90
52495;DHT22;38405;53.212;5.660;2023-01-04T13:14:49;11.50;99.90
52495;DHT22;38405;53.212;5.660;2023-01-04T13:17:20;11.50;99.90
52495;DHT22;38405;53.212;5.660;2023-01-04T13:19:46;11.50;99.90
52495;DHT22;38405;53.212;5.660;2023-01-04T13:22:23;11.50;99.90
52495;DHT22;38405;53.212;5.660;2023-01-04T13:24:50;11.50;99.90
52495;DHT22;38405;53.212;5.660;2023-01-04T13:27:20;11.50;99.90
52495;DHT22;38405;53.212;5.660;2023-01-04T13:29:47;11.50;99.90
52495;DHT22;38405;53.212;5.660;2023-01-04T13:32:25;11.50;99.90
52495;DHT22;38405;53.212;5.660;2023-01-04T13:34:56;11.50;99.90
52495;DHT22;38405;53.212;5.660;2023-01-04T13:37:36;11.40;99.90
52495;DHT22;38405;53.212;5.660;2023-01-04T13:40:20;11.30;99.90
52495;DHT22;38405;53.212;5.660;2023-01-04T13:42:49;11.30;99.90
52495;DHT22;38405;53.212;5.660;2023-01-04T13:47:45;11.30;99.90
52495;DHT22;38405;53.212;5.660;2023-01-04T13:50:31;11.30;99.90
52495;DHT22;38405;53.212;5.660;2023-01-04T13:52:58;11.40;99.90
52495;DHT22;38405;53.212;5.660;2023-01-04T13:55:26;11.30;99.90
52495;DHT22;38405;53.212;5.660;2023-01-04T13:57:53;11.40;99.90
52495;DHT22;38405;53.212;5.660;2023-01-04T14:00:19;11.40;99.90
52495;DHT22;38405;53.212;5.660;2023-01-04T14:02:45;11.40;99.90
52495;DHT22;38405;53.212;5.660;2023-01-04T14:05:17;11.40;99.90
52495;DHT22;38405;53.212;5.660;2023-01-04T14:07:44;11.40;99.90
52495;DHT22;38405;53.212;5.660;2023-01-04T14:10:17;11.30;99.90
52495;DHT22;38405;53.212;5.660;2023-01-04T14:12:44;11.30;99.90
52495;DHT22;38405;53.212;5.660;2023-01-04T14:15:19;11.30;99.90
52495;DHT22;38405;53.212;5.660;2023-01-04T14:17:49;11.30;99.90
52495;DHT22;38405;53.212;5.660;2023-01-04T14:30:45;11.10;99.90
52495;DHT22;38405;53.212;5.660;2023-01-04T14:33:16;11.10;99.90
52495;DHT22;38405;53.212;5.660;2023-01-04T14:35:43;11.00;99.90
52495;DHT22;38405;53.212;5.660;2023-01-04T14:38:18;11.10;99.90
52495;DHT22;38405;53.212;5.660;2023-01-04T14:40:44;11.10;99.90
52495;DHT22;38405;53.212;5.660;2023-01-04T14:43:32;11.10;99.90
52495;DHT22;38405;53.212;5.660;2023-01-04T14:45:59;11.10;99.90
52495;DHT22;38405;53.212;5.660;2023-01-04T14:48:24;11.20;99.90
52495;DHT22;38405;53.212;5.660;2023-01-04T14:50:50;11.10;99.90
52495;DHT22;38405;53.212;5.660;2023-01-04T14:53:16;11.10;99.90
52495;DHT22;38405;53.212;5.660;2023-01-04T14:55:43;11.10;99.90
52495;DHT22;38405;53.212;5.660;2023-01-04T14:58:09;11.10;99.90
52495;DHT22;38405;53.212;5.660;2023-01-04T15:00:38;11.10;99.90
52495;DHT22;38405;53.212;5.660;2023-01-04T15:03:03;11.10;99.90
52495;DHT22;38405;53.212;5.660;2023-01-04T15:05:30;11.10;99.90
52495;DHT22;38405;53.212;5.660;2023-01-04T15:07:56;11.10;99.90
52495;DHT22;38405;53.212;5.660;2023-01-04T15:10:24;11.10;99.90
52495;DHT22;38405;53.212;5.660;2023-01-04T15:12:54;11.00;99.90
52495;DHT22;38405;53.212;5.660;2023-01-04T15:15:22;10.90;99.90
52495;DHT22;38405;53.212;5.660;2023-01-04T15:17:48;10.90;99.90
52495;DHT22;38405;53.212;5.660;2023-01-04T15:20:14;10.90;99.90
52495;DHT22;38405;53.212;5.660;2023-01-04T15:22:40;10.90;99.90
52495;DHT22;38405;53.212;5.660;2023-01-04T15:25:06;10.90;99.90
52495;DHT22;38405;53.212;5.660;2023-01-04T15:27:32;10.90;99.90
52495;DHT22;38405;53.212;5.660;2023-01-04T15:29:57;10.90;99.90
52495;DHT22;38405;53.212;5.660;2023-01-04T15:32:23;10.80;99.90
52495;DHT22;38405;53.212;5.660;2023-01-04T15:34:49;10.80;99.90
52495;DHT22;38405;53.212;5.660;2023-01-04T15:37:16;10.80;99.90
52495;DHT22;38405;53.212;5.660;2023-01-04T15:39:42;10.90;99.90
52495;DHT22;38405;53.212;5.660;2023-01-04T15:42:11;10.90;99.90
52495;DHT22;38405;53.212;5.660;2023-01-04T15:44:55;10.80;99.90
52495;DHT22;38405;53.212;5.660;2023-01-04T15:47:21;10.90;99.90
52495;DHT22;38405;53.212;5.660;2023-01-04T15:49:47;10.90;99.90
52495;DHT22;38405;53.212;5.660;2023-01-04T15:52:13;10.80;99.90
52495;DHT22;38405;53.212;5.660;2023-01-04T15:54:38;11.00;99.90
52495;DHT22;38405;53.212;5.660;2023-01-04T15:57:04;10.80;99.90
52495;DHT22;38405;53.212;5.660;2023-01-04T15:59:30;10.80;99.90
52495;DHT22;38405;53.212;5.660;2023-01-04T16:01:56;10.80;99.90
52495;DHT22;38405;53.212;5.660;2023-01-04T16:04:21;10.80;99.90
52495;DHT22;38405;53.212;5.660;2023-01-04T16:06:47;10.80;99.90
52495;DHT22;38405;53.212;5.660;2023-01-04T16:09:13;10.70;99.90
52495;DHT22;38405;53.212;5.660;2023-01-04T16:11:39;10.80;99.90
52495;DHT22;38405;53.212;5.660;2023-01-04T16:14:24;10.80;99.90
52495;DHT22;38405;53.212;5.660;2023-01-04T16:16:50;10.70;99.90
52495;DHT22;38405;53.212;5.660;2023-01-04T16:19:15;10.80;99.90
52495;DHT22;38405;53.212;5.660;2023-01-04T16:21:41;10.70;99.90
52495;DHT22;38405;53.212;5.660;2023-01-04T16:24:08;10.70;99.90
52495;DHT22;38405;53.212;5.660;2023-01-04T16:26:34;10.90;99.90
52495;DHT22;38405;53.212;5.660;2023-01-04T16:29:00;10.70;99.90
52495;DHT22;38405;53.212;5.660;2023-01-04T16:31:35;10.70;99.90
52495;DHT22;38405;53.212;5.660;2023-01-04T16:34:02;10.80;99.90
52495;DHT22;38405;53.212;5.660;2023-01-04T16:36:27;10.70;99.90
52495;DHT22;38405;53.212;5.660;2023-01-04T16:38:53;10.80;99.90
52495;DHT22;38405;53.212;5.660;2023-01-04T16:41:20;10.70;99.90
52495;DHT22;38405;53.212;5.660;2023-01-04T16:43:48;10.80;99.90
52495;DHT22;38405;53.212;5.660;2023-01-04T16:46:18;10.70;99.90
52495;DHT22;38405;53.212;5.660;2023-01-04T16:48:46;10.80;99.90
52495;DHT22;38405;53.212;5.660;2023-01-04T16:51:13;10.80;99.90
52495;DHT22;38405;53.212;5.660;2023-01-04T16:53:38;10.80;99.90
52495;DHT22;38405;53.212;5.660;2023-01-04T16:56:05;10.90;99.90
52495;DHT22;38405;53.212;5.660;2023-01-04T16:58:31;10.80;99.90
52495;DHT22;38405;53.212;5.660;2023-01-04T17:01:08;10.90;99.90
52495;DHT22;38405;53.212;5.660;2023-01-04T17:03:35;10.90;99.90
52495;DHT22;38405;53.212;5.660;2023-01-04T17:06:05;10.90;99.90
52495;DHT22;38405;53.212;5.660;2023-01-04T17:08:30;10.90;99.90
52495;DHT22;38405;53.212;5.660;2023-01-04T17:10:56;10.90;99.90
52495;DHT22;38405;53.212;5.660;2023-01-04T17:13:21;10.90;99.90
52495;DHT22;38405;53.212;5.660;2023-01-04T17:15:47;10.90;99.90
52495;DHT22;38405;53.212;5.660;2023-01-04T17:18:13;10.90;99.90
52495;DHT22;38405;53.212;5.660;2023-01-04T17:20:41;10.80;99.90
52495;DHT22;38405;53.212;5.660;2023-01-04T17:23:07;10.80;99.90
52495;DHT22;38405;53.212;5.660;2023-01-04T17:25:32;10.70;99.90
52495;DHT22;38405;53.212;5.660;2023-01-04T17:27:58;10.60;99.90
52495;DHT22;38405;53.212;5.660;2023-01-04T17:30:24;10.60;99.90
52495;DHT22;38405;53.212;5.660;2023-01-04T17:32:49;10.60;99.90
52495;DHT22;38405;53.212;5.660;2023-01-04T17:35:15;10.50;99.90
52495;DHT22;38405;53.212;5.660;2023-01-04T17:37:40;10.50;99.90
52495;DHT22;38405;53.212;5.660;2023-01-04T17:40:06;10.50;99.90
52495;DHT22;38405;53.212;5.660;2023-01-04T17:42:32;10.50;99.90